Time;durP1;ratioP1;P1;durP2;ratioP2;P2;SDS_P1;SDS_P2;PMS_P1;PMS_P2;Temp;Humidity;BMP_temperature;BMP_pressure;BME280_temperature;BME280_humidity;BME280_pressure;Samples;Min_cycle;Max_cycle;Signal;HPM_P1;HPM_P2
2021/12/06 00:02:09;;;;;;;41.25;24.40;;;23.00;39.30;;;;;;6151301;28;84136;-68
2021/12/06 00:05:10;;;;;;;38.95;24.25;;;23.00;39.30;;;;;;6153823;28;84179;-68
2021/12/06 00:08:10;;;;;;;39.17;23.45;;;23.00;39.30;;;;;;6156637;28;83130;-70
2021/12/06 00:11:11;;;;;;;43.15;24.88;;;23.00;39.30;;;;;;6156228;28;82979;-71
2021/12/06 00:14:12;;;;;;;36.13;22.92;;;23.00;39.40;;;;;;6154261;28;83028;-71
2021/12/06 00:17:12;;;;;;;37.42;21.98;;;23.00;39.50;;;;;;6154062;28;84236;-70
2021/12/06 00:20:13;;;;;;;34.90;22.25;;;23.00;39.30;;;;;;6156462;28;83270;-68
2021/12/06 00:23:13;;;;;;;38.42;23.42;;;23.00;39.40;;;;;;6154530;28;82835;-68
2021/12/06 00:26:14;;;;;;;37.50;23.15;;;23.00;39.50;;;;;;6151453;28;84753;-69
2021/12/06 00:29:14;;;;;;;35.22;21.33;;;22.90;39.40;;;;;;6147963;28;82708;-68
2021/12/06 00:32:16;;;;;;;35.08;22.50;;;22.90;39.60;;;;;;6152719;28;85029;-68
2021/12/06 00:35:23;;;;;;;36.75;21.52;;;22.90;39.40;;;;;;6148417;28;84617;-68
2021/12/06 00:38:23;;;;;;;34.40;21.50;;;22.90;39.30;;;;;;6155253;28;82974;-68
2021/12/06 00:41:24;;;;;;;32.72;20.60;;;22.90;39.30;;;;;;6153159;28;83347;-68
2021/12/06 00:44:24;;;;;;;36.67;22.20;;;22.90;39.40;;;;;;6153608;28;84352;-69
2021/12/06 00:47:25;;;;;;;35.30;22.17;;;22.90;39.40;;;;;;6152022;28;83380;-68
2021/12/06 00:50:26;;;;;;;33.22;20.00;;;22.90;39.40;;;;;;6152062;28;84558;-67
2021/12/06 00:53:26;;;;;;;35.80;21.55;;;22.90;39.40;;;;;;6154383;28;82972;-69
2021/12/06 00:56:27;;;;;;;32.55;20.73;;;22.90;39.40;;;;;;6152203;28;85909;-69
2021/12/06 00:59:27;;;;;;;35.90;21.33;;;22.90;39.50;;;;;;6155754;28;82868;-69
2021/12/06 01:02:28;;;;;;;35.20;21.45;;;22.90;39.40;;;;;;6153640;28;85658;-70
2021/12/06 01:05:29;;;;;;;35.58;20.65;;;22.90;39.30;;;;;;6150701;28;84058;-69
2021/12/06 01:08:30;;;;;;;34.72;21.08;;;22.90;39.50;;;;;;6150921;28;83218;-69
2021/12/06 01:11:30;;;;;;;31.08;20.10;;;22.90;39.40;;;;;;6153532;28;83355;-69
2021/12/06 01:14:32;;;;;;;32.42;19.80;;;22.90;39.30;;;;;;6152176;28;84519;-70
2021/12/06 01:17:32;;;;;;;32.50;20.45;;;22.90;39.30;;;;;;6137418;28;86124;-70
2021/12/06 01:20:38;;;;;;;31.35;18.80;;;22.90;39.30;;;;;;6146121;28;86061;-69
2021/12/06 01:23:52;;;;;;;31.10;18.90;;;22.90;39.30;;;;;;6152914;28;85860;-69
2021/12/06 01:30:18;;;;;;;33.97;20.23;;;22.90;39.60;;;;;;6151731;28;84130;-69
2021/12/06 01:33:39;;;;;;;30.98;19.08;;;22.90;39.60;;;;;;6151095;28;84521;-70
2021/12/06 01:39:59;;;;;;;29.58;18.20;;;22.80;39.60;;;;;;6145357;28;85718;-70
2021/12/06 01:42:59;;;;;;;27.65;17.75;;;22.90;39.90;;;;;;6154015;28;83510;-69
2021/12/06 01:46:01;;;;;;;29.13;18.88;;;22.80;39.80;;;;;;6151507;28;85047;-70
2021/12/06 01:49:01;;;;;;;32.38;18.70;;;22.80;39.90;;;;;;6150861;28;85842;-70
2021/12/06 01:52:02;;;;;;;31.63;18.25;;;22.80;40.20;;;;;;6149861;28;85912;-70
2021/12/06 01:55:04;;;;;;;28.42;17.42;;;22.80;40.10;;;;;;6149505;28;85533;-70
2021/12/06 01:58:04;;;;;;;35.35;19.40;;;22.80;40.00;;;;;;6151008;28;82937;-70
2021/12/06 02:01:05;;;;;;;29.52;18.52;;;22.80;40.10;;;;;;6151371;28;83648;-70
2021/12/06 02:04:07;;;;;;;29.05;18.05;;;22.80;39.80;;;;;;6153336;28;85634;-70
2021/12/06 02:07:08;;;;;;;29.70;19.02;;;22.80;40.00;;;;;;6150705;28;85884;-70
2021/12/06 02:10:10;;;;;;;29.73;18.40;;;22.80;39.80;;;;;;6151197;28;85972;-69
2021/12/06 02:13:11;;;;;;;30.08;19.13;;;22.80;39.90;;;;;;6134604;28;85617;-70
2021/12/06 02:16:13;;;;;;;32.13;19.25;;;22.80;39.70;;;;;;6153647;28;83146;-70
2021/12/06 02:19:18;;;;;;;28.25;17.98;;;22.80;39.90;;;;;;6152249;28;82944;-69
2021/12/06 02:22:19;;;;;;;31.88;18.35;;;22.80;39.50;;;;;;6153271;28;86312;-70
2021/12/06 02:25:20;;;;;;;28.77;17.75;;;22.80;39.30;;;;;;6152662;28;83545;-70
2021/12/06 02:28:22;;;;;;;31.05;19.88;;;22.70;39.20;;;;;;6153943;28;84165;-70
2021/12/06 02:31:23;;;;;;;33.13;19.90;;;22.70;39.10;;;;;;6148400;28;85772;-69
2021/12/06 02:34:23;;;;;;;32.97;20.38;;;22.80;39.20;;;;;;6135298;28;85774;-68
2021/12/06 02:37:24;;;;;;;32.00;20.10;;;22.80;39.00;;;;;;6138268;28;85259;-68
2021/12/06 02:40:25;;;;;;;33.90;18.88;;;22.80;39.10;;;;;;6142191;28;84230;-68
2021/12/06 02:43:26;;;;;;;28.83;18.13;;;22.80;39.00;;;;;;6157626;28;85927;-68
2021/12/06 02:46:26;;;;;;;30.58;19.30;;;22.80;39.20;;;;;;6156931;28;86165;-69
2021/12/06 02:49:27;;;;;;;33.55;19.75;;;22.80;39.00;;;;;;6156725;28;86164;-68
2021/12/06 02:52:27;;;;;;;30.00;18.70;;;22.80;39.00;;;;;;6154523;28;83032;-68
2021/12/06 02:55:36;;;;;;;34.53;19.75;;;22.80;38.80;;;;;;6152543;28;83510;-68
2021/12/06 03:01:40;;;;;;;31.70;19.70;;;22.80;38.90;;;;;;6148617;28;85761;-69
2021/12/06 03:04:41;;;;;;;31.88;19.40;;;22.70;38.90;;;;;;6148843;28;84658;-69
2021/12/06 03:07:46;;;;;;;33.67;19.88;;;22.80;39.00;;;;;;6164088;28;85764;-71
2021/12/06 03:10:47;;;;;;;29.38;18.27;;;22.80;39.00;;;;;;6148571;28;85559;-69
2021/12/06 03:13:48;;;;;;;29.83;18.80;;;22.80;39.40;;;;;;6147351;28;84253;-69
2021/12/06 03:16:48;;;;;;;31.67;19.73;;;22.80;38.80;;;;;;6147052;28;85805;-69
2021/12/06 03:19:50;;;;;;;34.47;19.50;;;22.80;38.70;;;;;;6149390;28;84931;-70
2021/12/06 03:22:50;;;;;;;32.72;20.13;;;22.80;38.50;;;;;;6157296;28;84024;-70
2021/12/06 03:25:51;;;;;;;31.70;20.90;;;22.90;38.50;;;;;;6156952;28;83462;-70
2021/12/06 03:28:52;;;;;;;32.58;19.85;;;23.00;38.50;;;;;;6157694;28;84181;-69
2021/12/06 03:31:55;;;;;;;32.33;20.67;;;23.00;38.30;;;;;;6143929;28;84453;-70
2021/12/06 03:34:56;;;;;;;32.88;19.83;;;23.10;38.30;;;;;;6142044;28;84977;-69
2021/12/06 03:37:56;;;;;;;36.65;19.95;;;23.10;38.20;;;;;;6149415;28;85808;-69
2021/12/06 03:40:57;;;;;;;32.50;19.35;;;23.10;38.20;;;;;;6152949;28;84225;-69
2021/12/06 03:43:58;;;;;;;33.30;19.85;;;23.20;38.30;;;;;;6153382;28;86069;-69
2021/12/06 03:47:00;;;;;;;31.05;18.63;;;23.30;38.40;;;;;;6154123;28;84913;-69
2021/12/06 03:50:01;;;;;;;31.63;19.75;;;23.30;38.40;;;;;;6155032;28;85800;-69
2021/12/06 03:53:03;;;;;;;32.85;20.80;;;23.30;38.40;;;;;;6152061;28;82856;-70
2021/12/06 03:56:04;;;;;;;31.70;19.73;;;23.30;38.30;;;;;;6139191;28;85340;-69
2021/12/06 03:59:05;;;;;;;31.95;20.75;;;23.30;38.40;;;;;;6152558;28;84505;-71
2021/12/06 04:02:07;;;;;;;34.63;20.98;;;23.40;38.40;;;;;;6153050;28;85740;-70
2021/12/06 04:05:08;;;;;;;30.85;19.70;;;23.40;38.40;;;;;;6139582;28;85564;-69
2021/12/06 04:08:09;;;;;;;31.15;18.65;;;23.40;38.30;;;;;;6137887;28;85324;-70
2021/12/06 04:11:13;;;;;;;36.22;20.98;;;23.40;38.20;;;;;;6153213;28;85367;-70
2021/12/06 04:14:13;;;;;;;34.70;20.60;;;23.40;38.20;;;;;;6152237;28;83280;-69
2021/12/06 04:17:15;;;;;;;36.72;21.77;;;23.40;38.20;;;;;;6153766;28;84398;-70
2021/12/06 04:20:16;;;;;;;39.00;21.90;;;23.50;38.20;;;;;;6156165;28;83310;-70
2021/12/06 04:23:16;;;;;;;33.70;20.83;;;23.50;38.20;;;;;;6135367;28;85875;-70
2021/12/06 04:26:17;;;;;;;31.95;21.52;;;23.50;38.00;;;;;;6155278;28;83328;-70
2021/12/06 04:29:19;;;;;;;38.42;23.13;;;23.50;38.00;;;;;;6152782;28;84087;-69
2021/12/06 04:32:20;;;;;;;33.70;22.48;;;23.50;38.00;;;;;;6151682;28;85631;-68
2021/12/06 04:35:20;;;;;;;35.90;22.70;;;23.50;38.00;;;;;;6154435;28;83335;-68
2021/12/06 04:38:22;;;;;;;38.70;22.58;;;23.50;38.00;;;;;;6152025;28;86003;-69
2021/12/06 04:41:23;;;;;;;40.75;23.40;;;23.50;37.90;;;;;;6151964;28;85939;-69
2021/12/06 04:44:24;;;;;;;38.45;23.50;;;23.60;37.90;;;;;;6152217;28;85518;-68
2021/12/06 04:47:26;;;;;;;34.75;22.45;;;23.60;37.90;;;;;;6152591;28;85632;-68
2021/12/06 04:50:27;;;;;;;40.25;22.92;;;23.60;37.90;;;;;;6150052;28;85853;-68
2021/12/06 04:53:28;;;;;;;39.95;24.23;;;23.60;37.90;;;;;;6152189;28;85911;-69
2021/12/06 04:56:28;;;;;;;39.22;24.45;;;23.60;37.80;;;;;;6151148;28;85813;-70
2021/12/06 04:59:29;;;;;;;38.72;23.08;;;23.60;37.90;;;;;;6151413;28;85553;-68
2021/12/06 05:02:31;;;;;;;39.75;23.50;;;23.60;37.90;;;;;;6150857;28;86087;-67
2021/12/06 05:05:34;;;;;;;42.13;25.50;;;23.60;37.80;;;;;;6147091;28;85832;-67
2021/12/06 05:08:35;;;;;;;39.97;23.58;;;23.60;37.90;;;;;;6147074;28;85890;-68
2021/12/06 05:11:36;;;;;;;36.85;24.02;;;23.60;37.60;;;;;;6149902;28;85903;-68
2021/12/06 05:14:37;;;;;;;42.75;24.30;;;23.70;37.80;;;;;;6147753;28;86401;-68
2021/12/06 05:17:37;;;;;;;38.42;23.88;;;23.70;37.80;;;;;;6145961;28;85854;-68
2021/12/06 05:20:39;;;;;;;41.75;23.83;;;23.70;38.10;;;;;;6152547;28;83149;-68
2021/12/06 05:23:40;;;;;;;40.40;24.40;;;23.70;38.20;;;;;;6158715;28;85816;-67
2021/12/06 05:26:41;;;;;;;49.38;25.58;;;23.70;38.30;;;;;;6155559;28;84760;-70
2021/12/06 05:29:50;;;;;;;40.47;24.58;;;23.70;38.20;;;;;;6152637;28;84275;-72
2021/12/06 05:32:50;;;;;;;38.83;23.85;;;23.70;38.20;;;;;;6150559;28;86085;-67
2021/12/06 05:35:51;;;;;;;39.95;24.85;;;23.70;38.60;;;;;;6154436;28;83097;-70
2021/12/06 05:38:52;;;;;;;39.95;24.98;;;23.70;38.70;;;;;;6147404;28;83514;-67
2021/12/06 05:41:52;;;;;;;43.30;24.60;;;23.70;38.90;;;;;;6154722;28;83196;-68
2021/12/06 05:44:53;;;;;;;38.67;23.55;;;23.80;38.90;;;;;;6152406;28;83134;-67
2021/12/06 05:47:53;;;;;;;42.38;24.10;;;23.80;40.00;;;;;;6146391;28;82922;-68
2021/12/06 05:50:54;;;;;;;40.17;23.65;;;23.80;40.30;;;;;;6153300;28;83142;-66
2021/12/06 05:53:54;;;;;;;31.02;19.60;;;23.70;41.50;;;;;;6154018;28;83953;-68
2021/12/06 05:56:55;;;;;;;67.93;32.58;;;23.60;42.90;;;;;;6151969;28;90696;-62
2021/12/06 05:59:55;;;;;;;122.13;58.00;;;23.40;44.60;;;;;;6153562;28;83505;-65
2021/12/06 06:02:56;;;;;;;218.63;106.43;;;23.30;45.90;;;;;;6151365;28;84736;-66
2021/12/06 06:05:56;;;;;;;328.13;152.85;;;23.30;46.20;;;;;;6151637;28;85306;-67
2021/12/06 06:08:57;;;;;;;266.45;124.22;;;23.20;46.80;;;;;;6148323;28;85947;-65
2021/12/06 06:11:57;;;;;;;197.98;96.55;;;23.20;47.70;;;;;;6151059;28;85841;-67
2021/12/06 06:14:58;;;;;;;160.02;82.13;;;23.10;47.80;;;;;;6153405;28;85912;-67
2021/12/06 06:17:58;;;;;;;125.50;62.95;;;23.20;48.80;;;;;;6153056;28;84147;-66
2021/12/06 06:20:59;;;;;;;107.55;52.35;;;23.20;49.00;;;;;;6142148;28;83683;-67
2021/12/06 06:23:59;;;;;;;89.63;44.78;;;23.20;48.90;;;;;;6146065;28;83497;-67
2021/12/06 06:27:00;;;;;;;79.05;39.42;;;23.20;49.20;;;;;;6153004;28;84190;-66
2021/12/06 06:30:00;;;;;;;68.97;33.75;;;23.20;49.40;;;;;;6153350;28;83501;-66
2021/12/06 06:33:01;;;;;;;57.25;29.77;;;23.10;49.70;;;;;;6152829;28;82917;-67
2021/12/06 06:36:01;;;;;;;48.63;25.27;;;23.10;50.20;;;;;;6153145;28;83203;-66
2021/12/06 06:39:02;;;;;;;44.38;24.60;;;23.00;50.90;;;;;;6150246;28;85050;-67
2021/12/06 06:42:03;;;;;;;39.42;20.88;;;23.00;51.30;;;;;;6154036;28;84547;-69
2021/12/06 06:45:03;;;;;;;39.67;21.73;;;23.00;51.60;;;;;;6151053;28;83285;-67
2021/12/06 06:48:04;;;;;;;35.53;19.15;;;23.00;51.30;;;;;;6152439;28;83983;-67
2021/12/06 06:51:04;;;;;;;38.80;19.77;;;23.00;51.90;;;;;;6151282;28;82683;-67
2021/12/06 06:54:05;;;;;;;34.83;17.73;;;23.00;52.10;;;;;;6148605;28;85035;-69
2021/12/06 06:57:05;;;;;;;32.90;18.77;;;23.10;51.60;;;;;;6150510;28;84092;-66
2021/12/06 07:00:06;;;;;;;35.83;18.50;;;23.10;50.90;;;;;;6138417;28;83507;-67
2021/12/06 07:03:06;;;;;;;32.05;17.70;;;23.20;51.30;;;;;;6145272;28;83064;-69
2021/12/06 07:06:07;;;;;;;34.42;19.17;;;23.20;51.10;;;;;;6149783;28;84088;-69
2021/12/06 07:09:07;;;;;;;32.65;19.52;;;23.20;50.60;;;;;;6149561;28;83488;-67
2021/12/06 07:12:13;;;;;;;30.05;17.20;;;23.20;50.60;;;;;;6147803;28;83115;-67
2021/12/06 07:15:14;;;;;;;30.70;18.00;;;23.20;50.90;;;;;;6145907;28;83424;-66
2021/12/06 07:18:14;;;;;;;35.88;18.63;;;23.20;50.80;;;;;;6146314;28;83412;-65
2021/12/06 07:21:15;;;;;;;35.72;18.88;;;23.10;50.40;;;;;;6144379;28;84384;-65
2021/12/06 07:24:15;;;;;;;30.95;17.92;;;23.20;50.80;;;;;;6140909;28;83167;-66
2021/12/06 07:27:16;;;;;;;32.72;18.27;;;23.20;50.80;;;;;;6143222;28;83229;-67
2021/12/06 07:30:16;;;;;;;29.20;17.75;;;23.20;50.80;;;;;;6154372;28;82882;-67
2021/12/06 07:33:17;;;;;;;38.22;18.98;;;23.20;51.20;;;;;;6155017;28;83051;-69
2021/12/06 07:36:18;;;;;;;34.38;16.75;;;23.20;51.00;;;;;;6158465;28;83009;-69
2021/12/06 07:39:18;;;;;;;35.83;16.85;;;23.20;50.80;;;;;;6149397;28;83026;-70
2021/12/06 07:42:21;;;;;;;29.42;15.75;;;23.30;50.90;;;;;;6155043;28;83108;-69
2021/12/06 07:45:22;;;;;;;32.50;17.45;;;23.30;50.70;;;;;;6153202;28;88043;-71
2021/12/06 07:48:22;;;;;;;36.63;18.25;;;23.30;50.60;;;;;;6154854;28;84453;-69
2021/12/06 07:51:23;;;;;;;27.77;16.90;;;23.30;50.50;;;;;;6155263;28;83355;-70
2021/12/06 07:54:23;;;;;;;31.63;16.70;;;23.10;50.60;;;;;;6156019;28;84024;-68
2021/12/06 07:57:24;;;;;;;27.48;16.02;;;23.10;50.80;;;;;;6151066;28;83426;-67
2021/12/06 08:00:24;;;;;;;28.20;16.17;;;23.20;50.80;;;;;;6157128;28;83270;-66
2021/12/06 08:03:27;;;;;;;28.67;15.50;;;23.20;50.90;;;;;;6153104;28;84434;-64
2021/12/06 08:06:27;;;;;;;27.08;16.10;;;23.20;51.60;;;;;;6151804;28;83430;-69
2021/12/06 08:09:28;;;;;;;28.83;15.77;;;23.10;50.60;;;;;;6156673;28;83439;-67
2021/12/06 08:12:28;;;;;;;33.05;15.32;;;23.20;50.50;;;;;;6155948;28;83849;-69
2021/12/06 08:15:29;;;;;;;28.27;16.00;;;23.20;50.40;;;;;;6149850;28;84300;-68
2021/12/06 08:18:29;;;;;;;25.05;15.82;;;23.10;50.40;;;;;;6157353;28;83319;-68
2021/12/06 08:21:30;;;;;;;34.17;15.52;;;23.20;50.30;;;;;;6160254;28;83129;-68
2021/12/06 08:24:30;;;;;;;25.85;15.23;;;23.10;50.00;;;;;;6150685;28;84932;-68
2021/12/06 08:27:31;;;;;;;22.70;13.80;;;23.10;49.90;;;;;;6147904;28;82990;-68
2021/12/06 08:30:31;;;;;;;26.27;16.35;;;23.10;49.80;;;;;;6151281;28;83240;-67
2021/12/06 08:33:32;;;;;;;26.73;15.25;;;23.10;49.80;;;;;;6147170;28;84427;-67
2021/12/06 08:36:33;;;;;;;28.35;15.73;;;23.20;49.80;;;;;;6151562;28;83409;-67
2021/12/06 08:39:33;;;;;;;24.90;15.10;;;23.10;49.50;;;;;;6153837;28;83167;-67
2021/12/06 08:42:34;;;;;;;28.45;16.00;;;23.10;49.50;;;;;;6153811;28;83287;-67
2021/12/06 08:45:34;;;;;;;23.45;15.18;;;23.10;49.70;;;;;;6148139;28;83209;-67
2021/12/06 08:48:35;;;;;;;26.85;15.38;;;23.10;49.80;;;;;;6143568;28;83151;-66
2021/12/06 08:51:35;;;;;;;26.10;15.45;;;23.10;49.60;;;;;;6154411;28;83697;-66
2021/12/06 08:54:36;;;;;;;27.83;15.85;;;23.20;49.20;;;;;;6152611;28;83317;-66
2021/12/06 08:57:36;;;;;;;27.95;16.75;;;23.10;49.00;;;;;;6155265;28;83566;-66
2021/12/06 09:00:37;;;;;;;25.20;15.73;;;23.10;48.90;;;;;;6148658;28;83378;-68
2021/12/06 09:03:37;;;;;;;30.15;16.92;;;23.10;48.60;;;;;;6151980;28;83625;-68
2021/12/06 09:06:38;;;;;;;27.95;15.88;;;23.10;48.40;;;;;;6149845;28;82768;-68
2021/12/06 09:09:45;;;;;;;26.98;16.70;;;23.10;48.50;;;;;;6150538;28;85578;-68
2021/12/06 09:12:45;;;;;;;27.08;16.20;;;23.00;48.70;;;;;;6149559;28;83456;-67
2021/12/06 09:15:46;;;;;;;24.85;15.52;;;23.00;49.00;;;;;;6146761;28;83442;-68
2021/12/06 09:18:47;;;;;;;29.65;16.88;;;23.00;48.90;;;;;;6146870;28;84153;-67
2021/12/06 09:21:47;;;;;;;24.08;15.25;;;23.00;48.70;;;;;;6152275;28;83449;-67
2021/12/06 09:24:49;;;;;;;29.80;16.88;;;23.00;49.00;;;;;;6149787;28;83103;-68
2021/12/06 09:27:49;;;;;;;27.90;16.95;;;23.00;48.90;;;;;;6150992;28;84227;-68
2021/12/06 09:30:50;;;;;;;26.15;16.45;;;23.00;48.70;;;;;;6153809;28;83165;-68
2021/12/06 09:33:50;;;;;;;25.40;16.08;;;23.00;48.70;;;;;;6144333;28;84285;-68
2021/12/06 09:36:51;;;;;;;25.90;15.85;;;23.00;48.50;;;;;;6144682;28;83313;-68
2021/12/06 09:39:52;;;;;;;30.42;18.88;;;23.00;48.20;;;;;;6150924;28;83029;-68
2021/12/06 09:42:52;;;;;;;28.98;18.10;;;23.00;47.70;;;;;;6151253;28;83313;-67
2021/12/06 09:45:53;;;;;;;28.98;17.45;;;23.00;47.50;;;;;;6144227;28;84319;-68
2021/12/06 09:48:53;;;;;;;31.50;20.13;;;23.00;47.20;;;;;;6153171;28;83163;-67
2021/12/06 09:51:54;;;;;;;30.88;19.23;;;23.10;46.70;;;;;;6147253;28;83334;-66
2021/12/06 09:54:55;;;;;;;30.50;19.38;;;23.10;46.80;;;;;;6145161;28;84696;-66
2021/12/06 09:57:56;;;;;;;33.55;19.52;;;23.10;46.80;;;;;;6143143;28;84035;-69
2021/12/06 10:00:57;;;;;;;32.28;19.38;;;23.10;46.40;;;;;;6148741;28;84741;-69
2021/12/06 10:03:58;;;;;;;27.02;18.02;;;23.20;46.60;;;;;;6146451;28;83720;-66
2021/12/06 10:06:59;;;;;;;30.17;18.48;;;23.20;46.40;;;;;;6155873;28;84229;-68
2021/12/06 10:09:59;;;;;;;30.40;17.00;;;23.20;46.40;;;;;;6152862;28;83093;-66
2021/12/06 10:13:00;;;;;;;29.60;18.05;;;23.20;46.20;;;;;;6146521;28;84219;-68
2021/12/06 10:16:00;;;;;;;28.60;17.67;;;23.20;46.30;;;;;;6147568;28;84147;-69
2021/12/06 10:19:01;;;;;;;29.95;18.98;;;23.20;46.30;;;;;;6145353;28;83573;-69
2021/12/06 10:22:01;;;;;;;32.45;18.63;;;23.30;46.20;;;;;;6152339;28;83644;-67
2021/12/06 10:25:02;;;;;;;33.45;18.90;;;23.30;46.20;;;;;;6151305;28;83103;-67
2021/12/06 10:28:05;;;;;;;29.58;19.15;;;23.30;46.00;;;;;;6148040;28;83848;-67
2021/12/06 10:31:05;;;;;;;29.40;17.38;;;23.30;46.00;;;;;;6152153;28;84067;-67
2021/12/06 10:34:06;;;;;;;28.52;17.83;;;23.20;46.40;;;;;;6147604;28;83477;-67
2021/12/06 10:37:06;;;;;;;25.35;15.60;;;23.30;45.90;;;;;;6145625;28;82991;-67
2021/12/06 10:40:07;;;;;;;26.08;17.55;;;23.20;46.10;;;;;;6149203;28;83182;-66
2021/12/06 10:43:07;;;;;;;26.85;16.55;;;23.20;46.50;;;;;;6150518;28;83111;-66
2021/12/06 10:46:08;;;;;;;27.67;16.75;;;23.20;46.60;;;;;;6149933;28;84809;-66
2021/12/06 10:49:08;;;;;;;26.10;15.43;;;23.20;46.50;;;;;;6135011;28;82895;-67
2021/12/06 10:52:09;;;;;;;30.27;16.83;;;23.30;46.70;;;;;;6148335;28;83704;-66
2021/12/06 10:55:09;;;;;;;28.65;16.70;;;23.20;46.90;;;;;;6149519;28;83993;-67
2021/12/06 10:58:10;;;;;;;30.83;16.77;;;23.30;47.60;;;;;;6150763;28;83240;-66
2021/12/06 11:01:13;;;;;;;32.67;19.38;;;23.20;47.50;;;;;;6153997;28;83232;-67
2021/12/06 11:04:14;;;;;;;33.83;19.58;;;23.20;47.90;;;;;;6141661;28;83151;-67
2021/12/06 11:07:15;;;;;;;35.50;19.20;;;23.20;48.60;;;;;;6154157;28;83280;-66
2021/12/06 11:10:15;;;;;;;36.10;20.70;;;23.30;49.00;;;;;;6155275;28;84159;-67
2021/12/06 11:13:16;;;;;;;35.75;20.40;;;23.20;48.70;;;;;;6154466;28;84220;-65
2021/12/06 11:16:16;;;;;;;36.65;19.95;;;23.20;49.40;;;;;;6145624;28;83920;-65
2021/12/06 11:19:17;;;;;;;38.00;22.00;;;23.30;50.00;;;;;;6154325;28;82965;-66
2021/12/06 11:22:17;;;;;;;38.08;20.42;;;23.20;50.20;;;;;;6154195;28;83100;-66
2021/12/06 11:25:18;;;;;;;39.20;22.48;;;23.20;50.50;;;;;;6152724;28;83195;-66
2021/12/06 11:28:19;;;;;;;43.25;24.23;;;23.20;50.30;;;;;;6155378;28;83090;-67
2021/12/06 11:31:19;;;;;;;43.88;23.67;;;23.20;50.50;;;;;;6155104;28;83227;-66
2021/12/06 11:34:20;;;;;;;42.40;24.10;;;23.20;51.00;;;;;;6151155;28;84376;-66
2021/12/06 11:37:20;;;;;;;42.15;22.65;;;23.20;51.10;;;;;;6148801;28;82934;-66
2021/12/06 11:40:21;;;;;;;39.95;21.77;;;23.20;51.10;;;;;;6153309;28;82930;-65
2021/12/06 11:43:21;;;;;;;39.78;22.00;;;23.20;51.50;;;;;;6154249;28;83694;-65
2021/12/06 11:46:22;;;;;;;37.92;22.65;;;23.20;51.40;;;;;;6154266;28;83199;-66
2021/12/06 11:49:22;;;;;;;43.78;23.45;;;23.20;51.50;;;;;;6154009;28;83313;-65
2021/12/06 11:52:23;;;;;;;37.25;21.98;;;23.20;51.70;;;;;;6154765;28;82976;-65
2021/12/06 11:55:24;;;;;;;40.70;22.67;;;23.20;51.80;;;;;;6154718;28;84280;-66
2021/12/06 11:58:24;;;;;;;35.97;21.17;;;23.20;52.20;;;;;;6153986;28;83121;-66
2021/12/06 12:01:25;;;;;;;39.40;20.30;;;23.20;52.10;;;;;;6154323;28;83555;-66
2021/12/06 12:04:25;;;;;;;34.60;19.55;;;23.20;51.80;;;;;;6152755;28;83661;-66
2021/12/06 12:07:26;;;;;;;29.40;17.63;;;23.20;51.80;;;;;;6148807;28;83277;-67
2021/12/06 12:10:26;;;;;;;26.95;16.88;;;23.20;51.70;;;;;;6147707;28;82880;-67
2021/12/06 12:13:27;;;;;;;26.42;15.70;;;23.10;51.40;;;;;;6151212;28;84076;-66
2021/12/06 12:16:28;;;;;;;30.85;15.35;;;23.10;50.60;;;;;;6147540;28;83388;-65
2021/12/06 12:19:28;;;;;;;20.23;12.82;;;23.10;50.80;;;;;;6147282;28;84759;-66
2021/12/06 12:22:29;;;;;;;20.27;13.02;;;23.20;50.60;;;;;;6152210;28;84092;-65
2021/12/06 12:25:34;;;;;;;23.00;12.98;;;23.10;50.30;;;;;;6144627;28;83341;-65
2021/12/06 12:28:48;;;;;;;17.58;11.20;;;23.10;50.20;;;;;;6149925;28;83419;-66
2021/12/06 12:31:48;;;;;;;19.83;11.15;;;23.10;49.70;;;;;;6150743;28;82866;-65
2021/12/06 12:34:49;;;;;;;19.08;10.73;;;23.10;49.80;;;;;;6148435;28;83472;-65
2021/12/06 12:37:51;;;;;;;16.35;10.32;;;23.10;49.80;;;;;;6150119;28;83240;-66
2021/12/06 12:40:51;;;;;;;16.23;10.93;;;23.00;49.70;;;;;;6149090;28;83777;-65
2021/12/06 12:43:52;;;;;;;20.02;9.57;;;23.10;49.40;;;;;;6147963;28;84269;-65
2021/12/06 12:46:53;;;;;;;12.43;8.13;;;23.00;49.50;;;;;;6147944;28;82903;-66
2021/12/06 12:49:54;;;;;;;14.32;8.85;;;23.10;49.80;;;;;;6153218;28;80546;-65
2021/12/06 12:52:55;;;;;;;13.95;9.15;;;23.00;49.60;;;;;;6155671;28;82349;-65
2021/12/06 12:55:55;;;;;;;14.25;7.82;;;23.00;49.30;;;;;;6156338;28;80589;-66
2021/12/06 12:58:56;;;;;;;19.35;8.10;;;23.00;49.10;;;;;;6152958;28;80641;-66
2021/12/06 13:01:58;;;;;;;11.57;7.50;;;23.00;49.00;;;;;;6156564;28;80595;-65
2021/12/06 13:04:59;;;;;;;11.93;7.72;;;23.00;49.00;;;;;;6148154;28;80734;-65
2021/12/06 13:07:59;;;;;;;17.63;7.68;;;23.00;48.90;;;;;;6146745;28;80704;-65
2021/12/06 13:11:00;;;;;;;13.52;8.40;;;22.90;48.90;;;;;;6141072;28;80760;-65
2021/12/06 13:14:02;;;;;;;11.57;6.97;;;23.00;49.00;;;;;;6152057;28;81133;-66
2021/12/06 13:17:06;;;;;;;10.38;7.00;;;22.90;49.10;;;;;;6163493;28;80771;-65
2021/12/06 13:20:09;;;;;;;9.57;7.03;;;22.90;49.10;;;;;;6154751;28;80993;-67
2021/12/06 13:23:10;;;;;;;10.35;7.45;;;22.90;49.00;;;;;;6155849;28;81042;-66
2021/12/06 13:26:11;;;;;;;12.30;8.18;;;22.90;49.40;;;;;;6149950;28;80543;-65
2021/12/06 13:29:11;;;;;;;10.25;7.32;;;22.90;48.90;;;;;;6164052;28;82471;-66
2021/12/06 13:32:12;;;;;;;9.38;6.85;;;22.90;48.60;;;;;;6157715;28;81707;-66
2021/12/06 13:35:12;;;;;;;11.75;7.88;;;22.90;48.60;;;;;;6156229;28;82294;-66
2021/12/06 13:38:13;;;;;;;10.30;7.43;;;22.90;49.10;;;;;;6154510;28;81109;-65
2021/12/06 13:41:14;;;;;;;11.30;7.57;;;22.90;49.20;;;;;;6158767;28;81265;-65
2021/12/06 13:44:21;;;;;;;10.95;7.68;;;22.90;49.00;;;;;;6154189;28;83141;-66
2021/12/06 13:47:21;;;;;;;13.18;8.00;;;22.90;49.10;;;;;;6158090;28;81747;-65
2021/12/06 13:50:22;;;;;;;11.13;7.35;;;22.90;49.10;;;;;;6157571;28;80535;-66
2021/12/06 13:53:24;;;;;;;11.00;7.40;;;22.90;49.00;;;;;;6157152;28;80339;-66
2021/12/06 13:56:24;;;;;;;11.98;7.55;;;22.90;48.80;;;;;;6155425;28;81336;-65
2021/12/06 13:59:25;;;;;;;9.90;7.25;;;22.90;48.80;;;;;;6156075;28;80859;-65
2021/12/06 14:02:27;;;;;;;12.07;8.85;;;23.00;48.40;;;;;;6156074;28;80972;-66
2021/12/06 14:05:28;;;;;;;13.63;8.88;;;23.10;48.00;;;;;;6144832;28;81199;-66
2021/12/06 14:08:28;;;;;;;12.52;8.80;;;23.00;47.40;;;;;;6154441;28;80507;-67
2021/12/06 14:11:30;;;;;;;10.93;8.15;;;23.10;47.40;;;;;;6153009;28;81956;-69
2021/12/06 14:14:35;;;;;;;15.82;9.23;;;23.10;47.20;;;;;;6150499;28;82438;-68
2021/12/06 14:17:36;;;;;;;14.53;9.70;;;23.10;47.00;;;;;;6146147;28;80286;-68
2021/12/06 14:20:37;;;;;;;11.95;8.55;;;23.10;46.60;;;;;;6145269;28;80798;-68
2021/12/06 14:23:38;;;;;;;13.68;8.95;;;23.20;46.70;;;;;;6155737;28;81661;-68
2021/12/06 14:26:43;;;;;;;13.95;9.15;;;23.20;46.30;;;;;;6150649;28;80955;-68
2021/12/06 14:29:43;;;;;;;15.00;9.50;;;23.20;46.10;;;;;;6152718;28;81988;-68
2021/12/06 14:32:44;;;;;;;12.57;8.23;;;23.30;46.20;;;;;;6152452;28;80619;-69
2021/12/06 14:35:45;;;;;;;12.40;8.43;;;23.20;46.10;;;;;;6152184;28;80744;-68
2021/12/06 14:38:45;;;;;;;12.98;8.90;;;23.30;45.80;;;;;;6156886;28;82135;-68
2021/12/06 14:41:46;;;;;;;10.82;8.45;;;23.30;45.70;;;;;;6154934;28;81446;-66
2021/12/06 14:44:46;;;;;;;12.55;8.32;;;23.30;45.50;;;;;;6156306;28;80762;-67
2021/12/06 14:47:54;;;;;;;13.55;8.55;;;23.30;45.20;;;;;;6156232;28;81431;-67
2021/12/06 14:54:04;;;;;;;11.07;7.28;;;23.20;45.40;;;;;;6155463;28;81468;-68
2021/12/06 14:57:07;;;;;;;13.68;7.53;;;23.30;45.20;;;;;;6158288;28;80842;-66
2021/12/06 15:00:07;;;;;;;10.05;7.18;;;23.30;45.40;;;;;;6159703;28;80337;-68
2021/12/06 15:03:08;;;;;;;11.35;7.15;;;23.30;45.60;;;;;;6154158;28;80235;-69
2021/12/06 15:06:09;;;;;;;10.07;6.97;;;23.20;45.80;;;;;;6154644;28;81513;-67
2021/12/06 15:09:09;;;;;;;8.55;6.60;;;23.30;46.00;;;;;;6156689;28;80304;-67
2021/12/06 15:12:11;;;;;;;14.38;7.60;;;23.30;46.00;;;;;;6159256;28;80633;-67
2021/12/06 15:15:11;;;;;;;9.10;6.60;;;23.30;46.30;;;;;;6158019;28;81364;-67
2021/12/06 15:18:14;;;;;;;11.55;7.13;;;23.30;46.00;;;;;;6158095;28;80396;-63
2021/12/06 15:21:15;;;;;;;11.10;7.75;;;23.30;45.70;;;;;;6158777;28;80791;-66
2021/12/06 15:24:15;;;;;;;10.82;6.90;;;23.20;45.70;;;;;;6158029;28;81483;-67
2021/12/06 15:27:16;;;;;;;10.48;6.82;;;23.20;46.20;;;;;;6159685;28;80568;-66
2021/12/06 15:30:16;;;;;;;8.80;6.30;;;23.30;46.80;;;;;;6161709;28;80749;-65
2021/12/06 15:33:17;;;;;;;11.60;6.22;;;23.20;47.10;;;;;;6155459;28;80264;-66